Shiprock, NM (87420)

9:05 PM MDT on April 27, 2015 (GMT -0600)
Four Corners Regional | | Change Station
CLOSE
Current Station
Airport
Location: Farmington,
Elevation: 5502 ft
Nearby Weather Stations

Elev 5502 ft 36.74 °N, 108.23 °W | Updated 12 minutes ago

Rain
Rain
52 °F
Feels Like 52 °F
N
6
Wind Variable Wind from South
Gusts 17 mph

Today
High -- | Low -- °F
--% Chance of Precip.
Yesterday
High -- | Low -- °F
Precip. -- in
6:25 AM 7:58 PM
Waxing Gibbous, 70% visible
Pressure 30.05 in
Visibility 7.0 miles
Clouds Mostly Cloudy 4000 ft
Overcast 8000 ft
Dew Point 40 °F
Humidity 63%
Rainfall 0.06 in
Snow Depth Not available.
UV 0 out of 12
Pollen 7.90 out of 12
Air Quality Not available.
Flu Activity Local Activity
METAR KFMN 280253Z 17005G15KT 7SM -RA BKN040 OVC080 11/04 A3011 RMK AO2 WSHFT 0155 SLP175 P0006 60006 T01110044 53029

More Conditions Fewer Conditions

Pressure 30.05 in
Visibility 7.0 miles
Clouds Mostly Cloudy 4000 ft
Overcast 8000 ft
Dew Point 40 °F
Humidity 63%
Rainfall 0.06 in
Snow Depth Not available.
UV 0 out of 12
Pollen 7.90 out of 12
Air Quality Not available.
Flu Activity Local Activity
METAR KFMN 280253Z 17005G15KT 7SM -RA BKN040 OVC080 11/04 A3011 RMK AO2 WSHFT 0155 SLP175 P0006 60006 T01110044 53029

More Conditions Fewer Conditions

Nowcast | as of 8:09 PM MDT on April 27, 2015

Scattered showers and a thunderstorm or two will continue this evening over western and central New Mexico. Movement will be to the south around 15 mph and produce modest rainfall amounts and brief gusty winds. The strongest storms may also produce brief small hail and a little cloud to ground lightning strikes. Areas that may be impacted through 10 PM MDT include Rio Rancho and the Albuquerque Metro...Los Lunas...Belen...Alamo...Cubero...La Jara...Regina... Gallina...Counselor and Pueblo Pintado.

×

10-Day Weather Forecast

Almanac

Astronomy

Apr. 27, 2015 Rise Set
Actual Time
Civil Twilight
Nautical Twilight
Astronomical Twilight
Moon
Length of Visible Light
Length of Day
Tomorrow will be .
, % of the Moon is Illuminated

Today's Extremes

State Highs State Lows

Community

WunderPhotos

Upload Photos

1,817,533 photos uploaded!

WunderBlogs® & News

Nearby

Air Quality

  Air Quality AQ Index Pollutant
Not available.

Snow Depth

Station Depth Elevation

Earthquake Activity

City Distance Mag. Time & Date
Minimum magnitude displayed is 2.5.

Coastal Water Temperatures

Place Temperature

Stations

Nearby Weather Stations

Station Location Temp. Windchill Dew Point Humidity Wind Precip. Elev Updated Type